Terminal Aerodrome Forecast
Issued by NWS Charleston, WV

Current Version | Previous Version | Graphics & Text | Print | Product List | Glossary On
Versions: 1 2 3 4 5 6 7 8 9 10 11 12 13 14 15 16 17 18 19 20 21 22 23
000
FTUS41 KRLX 241500 AAA
TAFBKW
TAF AMD
KBKW 241500Z 2415/2512 29006KT P6SM BKN015
     FM241700 28010KT P6SM SCT015
     FM242000 27011G17KT P6SM SCT070
     FM242300 29008KT P6SM SCT060=

USA.gov is the U.S. government's official web portal to all federal, state and local government web resources and services.